sensor_id;sensor_type;location;lat;lon;timestamp;temperature;humidity
26336;DHT22;14047;50.936;4.654;2023-08-06T00:01:55;17.80;99.90
26336;DHT22;14047;50.936;4.654;2023-08-06T00:04:21;17.80;99.90
26336;DHT22;14047;50.936;4.654;2023-08-06T00:06:47;17.70;99.90
26336;DHT22;14047;50.936;4.654;2023-08-06T00:09:13;17.70;99.90
26336;DHT22;14047;50.936;4.654;2023-08-06T00:11:42;17.70;99.90
26336;DHT22;14047;50.936;4.654;2023-08-06T00:14:10;17.70;99.90
26336;DHT22;14047;50.936;4.654;2023-08-06T00:16:36;17.70;99.90
26336;DHT22;14047;50.936;4.654;2023-08-06T00:19:02;17.70;99.90
26336;DHT22;14047;50.936;4.654;2023-08-06T00:21:28;17.60;99.90
26336;DHT22;14047;50.936;4.654;2023-08-06T00:23:54;17.70;99.90
26336;DHT22;14047;50.936;4.654;2023-08-06T00:26:20;17.70;99.90
26336;DHT22;14047;50.936;4.654;2023-08-06T00:28:46;17.70;99.90
26336;DHT22;14047;50.936;4.654;2023-08-06T00:31:15;17.70;99.90
26336;DHT22;14047;50.936;4.654;2023-08-06T00:33:44;17.80;99.90
26336;DHT22;14047;50.936;4.654;2023-08-06T00:36:10;17.70;99.90
26336;DHT22;14047;50.936;4.654;2023-08-06T00:38:36;17.70;99.90
26336;DHT22;14047;50.936;4.654;2023-08-06T00:41:02;17.60;99.90
26336;DHT22;14047;50.936;4.654;2023-08-06T00:43:28;17.60;99.90
26336;DHT22;14047;50.936;4.654;2023-08-06T00:45:55;17.60;99.90
26336;DHT22;14047;50.936;4.654;2023-08-06T00:48:22;17.60;99.90
26336;DHT22;14047;50.936;4.654;2023-08-06T00:50:48;17.70;99.90
26336;DHT22;14047;50.936;4.654;2023-08-06T00:53:17;17.70;99.90
26336;DHT22;14047;50.936;4.654;2023-08-06T00:55:44;17.70;99.90
26336;DHT22;14047;50.936;4.654;2023-08-06T00:58:12;17.80;99.90
26336;DHT22;14047;50.936;4.654;2023-08-06T01:00:39;17.80;99.90
26336;DHT22;14047;50.936;4.654;2023-08-06T01:03:05;17.90;99.90
26336;DHT22;14047;50.936;4.654;2023-08-06T01:05:31;17.90;99.90
26336;DHT22;14047;50.936;4.654;2023-08-06T01:13:47;17.90;99.90
26336;DHT22;14047;50.936;4.654;2023-08-06T01:16:16;17.90;99.90
26336;DHT22;14047;50.936;4.654;2023-08-06T01:18:43;17.80;99.90
26336;DHT22;14047;50.936;4.654;2023-08-06T01:21:13;17.80;99.90
26336;DHT22;14047;50.936;4.654;2023-08-06T01:23:39;17.90;99.90
26336;DHT22;14047;50.936;4.654;2023-08-06T01:29:15;17.90;99.90
26336;DHT22;14047;50.936;4.654;2023-08-06T01:31:47;17.90;99.90
26336;DHT22;14047;50.936;4.654;2023-08-06T01:34:17;17.80;99.90
26336;DHT22;14047;50.936;4.654;2023-08-06T01:36:48;17.80;99.90
26336;DHT22;14047;50.936;4.654;2023-08-06T01:39:14;17.80;99.90
26336;DHT22;14047;50.936;4.654;2023-08-06T01:41:40;17.90;99.90
26336;DHT22;14047;50.936;4.654;2023-08-06T01:44:06;17.90;99.90
26336;DHT22;14047;50.936;4.654;2023-08-06T01:46:32;17.90;99.90
26336;DHT22;14047;50.936;4.654;2023-08-06T01:48:58;18.00;99.90
26336;DHT22;14047;50.936;4.654;2023-08-06T01:51:24;18.10;99.90
26336;DHT22;14047;50.936;4.654;2023-08-06T01:53:50;18.10;99.90
26336;DHT22;14047;50.936;4.654;2023-08-06T01:56:18;18.10;99.90
26336;DHT22;14047;50.936;4.654;2023-08-06T01:58:44;18.10;99.90
26336;DHT22;14047;50.936;4.654;2023-08-06T02:01:10;18.10;99.90
26336;DHT22;14047;50.936;4.654;2023-08-06T02:03:36;18.00;99.90
26336;DHT22;14047;50.936;4.654;2023-08-06T02:06:03;18.00;99.90
26336;DHT22;14047;50.936;4.654;2023-08-06T02:08:29;17.90;99.90
26336;DHT22;14047;50.936;4.654;2023-08-06T02:10:55;17.70;99.90
26336;DHT22;14047;50.936;4.654;2023-08-06T02:13:21;17.70;99.90
26336;DHT22;14047;50.936;4.654;2023-08-06T02:15:47;17.70;99.90
26336;DHT22;14047;50.936;4.654;2023-08-06T02:18:13;17.60;99.90
26336;DHT22;14047;50.936;4.654;2023-08-06T02:20:41;17.60;99.90
26336;DHT22;14047;50.936;4.654;2023-08-06T02:23:07;17.70;99.90
26336;DHT22;14047;50.936;4.654;2023-08-06T02:25:33;17.80;99.90
26336;DHT22;14047;50.936;4.654;2023-08-06T02:27:59;17.80;99.90
26336;DHT22;14047;50.936;4.654;2023-08-06T02:30:25;17.80;99.90
26336;DHT22;14047;50.936;4.654;2023-08-06T02:32:51;17.90;99.90
26336;DHT22;14047;50.936;4.654;2023-08-06T02:35:17;17.90;99.90
26336;DHT22;14047;50.936;4.654;2023-08-06T02:37:44;18.00;99.90
26336;DHT22;14047;50.936;4.654;2023-08-06T02:40:10;18.00;99.90
26336;DHT22;14047;50.936;4.654;2023-08-06T02:42:36;18.10;99.90
26336;DHT22;14047;50.936;4.654;2023-08-06T02:45:03;18.10;99.90
26336;DHT22;14047;50.936;4.654;2023-08-06T02:47:29;17.90;99.90
26336;DHT22;14047;50.936;4.654;2023-08-06T02:49:57;17.90;99.90
26336;DHT22;14047;50.936;4.654;2023-08-06T02:52:23;17.90;99.90
26336;DHT22;14047;50.936;4.654;2023-08-06T02:54:49;17.90;99.90
26336;DHT22;14047;50.936;4.654;2023-08-06T02:57:16;17.90;99.90
26336;DHT22;14047;50.936;4.654;2023-08-06T02:59:42;17.90;99.90
26336;DHT22;14047;50.936;4.654;2023-08-06T03:02:13;17.80;99.90
26336;DHT22;14047;50.936;4.654;2023-08-06T03:05:02;17.80;99.90
26336;DHT22;14047;50.936;4.654;2023-08-06T03:07:33;17.60;99.90
26336;DHT22;14047;50.936;4.654;2023-08-06T03:10:09;17.40;99.90
26336;DHT22;14047;50.936;4.654;2023-08-06T03:12:35;17.30;99.90
26336;DHT22;14047;50.936;4.654;2023-08-06T03:15:03;17.30;99.90
26336;DHT22;14047;50.936;4.654;2023-08-06T03:17:29;17.20;99.90
26336;DHT22;14047;50.936;4.654;2023-08-06T03:19:55;17.10;99.90
26336;DHT22;14047;50.936;4.654;2023-08-06T03:22:22;17.10;99.90
26336;DHT22;14047;50.936;4.654;2023-08-06T03:24:52;17.10;99.90
26336;DHT22;14047;50.936;4.654;2023-08-06T03:27:20;17.00;99.90
26336;DHT22;14047;50.936;4.654;2023-08-06T03:29:51;17.00;99.90
26336;DHT22;14047;50.936;4.654;2023-08-06T03:32:20;16.90;99.90
26336;DHT22;14047;50.936;4.654;2023-08-06T03:34:46;16.90;99.90
26336;DHT22;14047;50.936;4.654;2023-08-06T03:37:12;16.90;99.90
26336;DHT22;14047;50.936;4.654;2023-08-06T03:39:38;16.90;99.90
26336;DHT22;14047;50.936;4.654;2023-08-06T03:42:05;16.80;99.90
26336;DHT22;14047;50.936;4.654;2023-08-06T03:44:31;16.80;99.90
26336;DHT22;14047;50.936;4.654;2023-08-06T03:46:57;16.80;99.90
26336;DHT22;14047;50.936;4.654;2023-08-06T03:49:23;16.80;99.90
26336;DHT22;14047;50.936;4.654;2023-08-06T03:51:49;16.80;99.90
26336;DHT22;14047;50.936;4.654;2023-08-06T03:54:15;16.80;99.90
26336;DHT22;14047;50.936;4.654;2023-08-06T03:56:41;16.70;99.90
26336;DHT22;14047;50.936;4.654;2023-08-06T03:59:07;16.70;99.90
26336;DHT22;14047;50.936;4.654;2023-08-06T04:01:33;16.70;99.90
26336;DHT22;14047;50.936;4.654;2023-08-06T04:03:59;16.60;99.90
26336;DHT22;14047;50.936;4.654;2023-08-06T04:06:25;16.60;99.90
26336;DHT22;14047;50.936;4.654;2023-08-06T04:08:52;16.60;99.90
26336;DHT22;14047;50.936;4.654;2023-08-06T04:11:18;16.70;99.90
26336;DHT22;14047;50.936;4.654;2023-08-06T04:13:44;16.60;99.90
26336;DHT22;14047;50.936;4.654;2023-08-06T04:16:10;16.50;99.90
26336;DHT22;14047;50.936;4.654;2023-08-06T04:18:36;16.50;99.90
26336;DHT22;14047;50.936;4.654;2023-08-06T04:21:02;16.50;99.90
26336;DHT22;14047;50.936;4.654;2023-08-06T04:23:28;16.50;99.90
26336;DHT22;14047;50.936;4.654;2023-08-06T04:25:58;16.50;99.90
26336;DHT22;14047;50.936;4.654;2023-08-06T04:28:28;16.40;99.90
26336;DHT22;14047;50.936;4.654;2023-08-06T04:30:54;16.40;99.90
26336;DHT22;14047;50.936;4.654;2023-08-06T04:33:21;16.40;99.90
26336;DHT22;14047;50.936;4.654;2023-08-06T04:35:47;16.30;99.90
26336;DHT22;14047;50.936;4.654;2023-08-06T04:38:13;16.20;99.90
26336;DHT22;14047;50.936;4.654;2023-08-06T04:40:39;16.00;99.90
26336;DHT22;14047;50.936;4.654;2023-08-06T04:43:05;15.90;99.90
26336;DHT22;14047;50.936;4.654;2023-08-06T04:45:34;15.70;99.90
26336;DHT22;14047;50.936;4.654;2023-08-06T04:47:59;15.50;99.90
26336;DHT22;14047;50.936;4.654;2023-08-06T04:50:25;15.30;99.90
26336;DHT22;14047;50.936;4.654;2023-08-06T04:52:51;15.20;99.90
26336;DHT22;14047;50.936;4.654;2023-08-06T04:55:17;15.30;99.90
26336;DHT22;14047;50.936;4.654;2023-08-06T04:57:43;15.00;99.90
26336;DHT22;14047;50.936;4.654;2023-08-06T05:00:09;15.00;99.90
26336;DHT22;14047;50.936;4.654;2023-08-06T05:02:35;15.10;99.90
26336;DHT22;14047;50.936;4.654;2023-08-06T05:05:04;15.10;99.90
26336;DHT22;14047;50.936;4.654;2023-08-06T05:07:30;15.00;99.90
26336;DHT22;14047;50.936;4.654;2023-08-06T05:09:56;14.90;99.90
26336;DHT22;14047;50.936;4.654;2023-08-06T05:12:21;14.70;99.90
26336;DHT22;14047;50.936;4.654;2023-08-06T05:14:47;14.60;99.90
26336;DHT22;14047;50.936;4.654;2023-08-06T05:17:13;14.50;99.90
26336;DHT22;14047;50.936;4.654;2023-08-06T05:19:39;14.40;99.90
26336;DHT22;14047;50.936;4.654;2023-08-06T05:22:05;14.40;99.90
26336;DHT22;14047;50.936;4.654;2023-08-06T05:24:31;14.40;99.90
26336;DHT22;14047;50.936;4.654;2023-08-06T05:26:57;14.50;99.90
26336;DHT22;14047;50.936;4.654;2023-08-06T05:29:23;14.50;99.90
26336;DHT22;14047;50.936;4.654;2023-08-06T05:31:49;14.60;99.90
26336;DHT22;14047;50.936;4.654;2023-08-06T05:34:15;14.60;99.90
26336;DHT22;14047;50.936;4.654;2023-08-06T05:36:41;14.60;99.90
26336;DHT22;14047;50.936;4.654;2023-08-06T05:39:07;14.60;99.90
26336;DHT22;14047;50.936;4.654;2023-08-06T05:41:32;14.60;99.90
26336;DHT22;14047;50.936;4.654;2023-08-06T05:43:58;14.60;99.90
26336;DHT22;14047;50.936;4.654;2023-08-06T05:46:25;14.70;99.90
26336;DHT22;14047;50.936;4.654;2023-08-06T05:48:51;14.60;99.90
26336;DHT22;14047;50.936;4.654;2023-08-06T05:51:17;14.60;99.90
26336;DHT22;14047;50.936;4.654;2023-08-06T05:53:43;14.50;99.90
26336;DHT22;14047;50.936;4.654;2023-08-06T05:56:09;14.60;99.90
26336;DHT22;14047;50.936;4.654;2023-08-06T05:58:35;14.50;99.90
26336;DHT22;14047;50.936;4.654;2023-08-06T06:01:01;14.50;99.90
26336;DHT22;14047;50.936;4.654;2023-08-06T06:03:27;14.50;99.90
26336;DHT22;14047;50.936;4.654;2023-08-06T06:05:53;14.50;99.90
26336;DHT22;14047;50.936;4.654;2023-08-06T06:08:19;14.50;99.90
26336;DHT22;14047;50.936;4.654;2023-08-06T06:10:45;14.60;99.90
26336;DHT22;14047;50.936;4.654;2023-08-06T06:13:11;14.70;99.90
26336;DHT22;14047;50.936;4.654;2023-08-06T06:15:36;14.80;99.90
26336;DHT22;14047;50.936;4.654;2023-08-06T06:18:03;14.80;99.90
26336;DHT22;14047;50.936;4.654;2023-08-06T06:20:32;14.80;99.90
26336;DHT22;14047;50.936;4.654;2023-08-06T06:22:57;14.80;99.90
26336;DHT22;14047;50.936;4.654;2023-08-06T06:25:23;14.80;99.90
26336;DHT22;14047;50.936;4.654;2023-08-06T06:27:49;14.90;99.90
26336;DHT22;14047;50.936;4.654;2023-08-06T06:30:15;14.80;99.90
26336;DHT22;14047;50.936;4.654;2023-08-06T06:32:41;15.00;99.90
26336;DHT22;14047;50.936;4.654;2023-08-06T06:35:08;15.00;99.90
26336;DHT22;14047;50.936;4.654;2023-08-06T06:37:34;15.00;99.90
26336;DHT22;14047;50.936;4.654;2023-08-06T06:39:59;15.00;99.90
26336;DHT22;14047;50.936;4.654;2023-08-06T06:42:25;15.00;99.90
26336;DHT22;14047;50.936;4.654;2023-08-06T06:44:57;15.00;99.90
26336;DHT22;14047;50.936;4.654;2023-08-06T06:47:24;15.00;99.90
26336;DHT22;14047;50.936;4.654;2023-08-06T06:49:49;15.00;99.90
26336;DHT22;14047;50.936;4.654;2023-08-06T06:52:15;15.00;99.90
26336;DHT22;14047;50.936;4.654;2023-08-06T06:54:41;15.00;99.90
26336;DHT22;14047;50.936;4.654;2023-08-06T06:57:07;15.00;99.90
26336;DHT22;14047;50.936;4.654;2023-08-06T06:59:33;15.00;99.90
26336;DHT22;14047;50.936;4.654;2023-08-06T07:01:59;15.00;99.90
26336;DHT22;14047;50.936;4.654;2023-08-06T07:04:25;15.00;99.90
26336;DHT22;14047;50.936;4.654;2023-08-06T07:06:51;15.00;99.90
26336;DHT22;14047;50.936;4.654;2023-08-06T07:09:17;15.00;99.90
26336;DHT22;14047;50.936;4.654;2023-08-06T07:11:44;15.00;99.90
26336;DHT22;14047;50.936;4.654;2023-08-06T07:14:09;15.00;99.90
26336;DHT22;14047;50.936;4.654;2023-08-06T07:16:35;15.00;99.90
26336;DHT22;14047;50.936;4.654;2023-08-06T07:19:01;15.00;99.90
26336;DHT22;14047;50.936;4.654;2023-08-06T07:21:27;14.90;99.90
26336;DHT22;14047;50.936;4.654;2023-08-06T07:23:53;15.00;99.90
26336;DHT22;14047;50.936;4.654;2023-08-06T07:26:20;14.90;99.90
26336;DHT22;14047;50.936;4.654;2023-08-06T07:28:46;15.00;99.90
26336;DHT22;14047;50.936;4.654;2023-08-06T07:31:12;15.00;99.90
26336;DHT22;14047;50.936;4.654;2023-08-06T07:33:38;15.00;99.90
26336;DHT22;14047;50.936;4.654;2023-08-06T07:36:14;15.00;99.90
26336;DHT22;14047;50.936;4.654;2023-08-06T07:38:41;15.20;99.90
26336;DHT22;14047;50.936;4.654;2023-08-06T07:41:07;15.20;99.90
26336;DHT22;14047;50.936;4.654;2023-08-06T07:43:33;15.30;99.90
26336;DHT22;14047;50.936;4.654;2023-08-06T07:46:01;15.40;99.90
26336;DHT22;14047;50.936;4.654;2023-08-06T07:48:27;15.40;99.90
26336;DHT22;14047;50.936;4.654;2023-08-06T07:50:54;15.50;99.90
26336;DHT22;14047;50.936;4.654;2023-08-06T07:53:21;15.60;99.90
26336;DHT22;14047;50.936;4.654;2023-08-06T07:55:52;15.60;99.90
26336;DHT22;14047;50.936;4.654;2023-08-06T07:58:19;15.60;99.90
26336;DHT22;14047;50.936;4.654;2023-08-06T08:00:46;15.50;99.90
26336;DHT22;14047;50.936;4.654;2023-08-06T08:03:13;15.60;99.90
26336;DHT22;14047;50.936;4.654;2023-08-06T08:05:40;15.60;99.90
26336;DHT22;14047;50.936;4.654;2023-08-06T08:08:06;15.60;99.90
26336;DHT22;14047;50.936;4.654;2023-08-06T08:10:32;15.50;99.90
26336;DHT22;14047;50.936;4.654;2023-08-06T08:12:59;15.60;99.90
26336;DHT22;14047;50.936;4.654;2023-08-06T08:15:25;15.70;99.90
26336;DHT22;14047;50.936;4.654;2023-08-06T08:17:54;15.70;99.90
26336;DHT22;14047;50.936;4.654;2023-08-06T08:20:20;15.70;99.90
26336;DHT22;14047;50.936;4.654;2023-08-06T08:22:46;15.80;99.90
26336;DHT22;14047;50.936;4.654;2023-08-06T08:25:13;16.20;99.90
26336;DHT22;14047;50.936;4.654;2023-08-06T08:27:39;16.20;99.90
26336;DHT22;14047;50.936;4.654;2023-08-06T08:30:05;16.30;99.90
26336;DHT22;14047;50.936;4.654;2023-08-06T08:32:32;16.50;99.90
26336;DHT22;14047;50.936;4.654;2023-08-06T08:34:57;16.50;99.90
26336;DHT22;14047;50.936;4.654;2023-08-06T08:37:24;16.50;99.90
26336;DHT22;14047;50.936;4.654;2023-08-06T08:39:50;16.40;99.90
26336;DHT22;14047;50.936;4.654;2023-08-06T08:42:16;16.50;99.90
26336;DHT22;14047;50.936;4.654;2023-08-06T08:44:42;16.50;99.90
26336;DHT22;14047;50.936;4.654;2023-08-06T08:47:10;16.60;99.90
26336;DHT22;14047;50.936;4.654;2023-08-06T08:49:36;16.60;99.90
26336;DHT22;14047;50.936;4.654;2023-08-06T08:52:04;16.70;99.90
26336;DHT22;14047;50.936;4.654;2023-08-06T08:54:35;16.50;99.90
26336;DHT22;14047;50.936;4.654;2023-08-06T08:57:02;16.10;99.90
26336;DHT22;14047;50.936;4.654;2023-08-06T08:59:28;15.80;99.90
26336;DHT22;14047;50.936;4.654;2023-08-06T09:01:54;15.60;99.90
26336;DHT22;14047;50.936;4.654;2023-08-06T09:04:21;15.40;99.90
26336;DHT22;14047;50.936;4.654;2023-08-06T09:06:50;15.40;99.90
26336;DHT22;14047;50.936;4.654;2023-08-06T09:09:26;15.30;99.90
26336;DHT22;14047;50.936;4.654;2023-08-06T09:11:57;15.40;99.90
26336;DHT22;14047;50.936;4.654;2023-08-06T09:14:24;15.40;99.90
26336;DHT22;14047;50.936;4.654;2023-08-06T09:16:49;15.50;99.90
26336;DHT22;14047;50.936;4.654;2023-08-06T09:19:16;15.50;99.90
26336;DHT22;14047;50.936;4.654;2023-08-06T09:21:43;15.40;99.90
26336;DHT22;14047;50.936;4.654;2023-08-06T09:24:10;15.20;99.90
26336;DHT22;14047;50.936;4.654;2023-08-06T09:26:40;15.10;99.90
26336;DHT22;14047;50.936;4.654;2023-08-06T09:29:08;15.00;99.90
26336;DHT22;14047;50.936;4.654;2023-08-06T09:31:45;15.10;99.90
26336;DHT22;14047;50.936;4.654;2023-08-06T09:34:21;15.10;99.90
26336;DHT22;14047;50.936;4.654;2023-08-06T09:36:49;15.10;99.90
26336;DHT22;14047;50.936;4.654;2023-08-06T09:39:30;15.20;99.90
26336;DHT22;14047;50.936;4.654;2023-08-06T09:41:58;15.20;99.90
26336;DHT22;14047;50.936;4.654;2023-08-06T09:44:25;15.30;99.90
26336;DHT22;14047;50.936;4.654;2023-08-06T09:46:52;15.40;99.90
26336;DHT22;14047;50.936;4.654;2023-08-06T09:49:20;15.40;99.90
26336;DHT22;14047;50.936;4.654;2023-08-06T09:51:46;15.30;99.90
26336;DHT22;14047;50.936;4.654;2023-08-06T09:54:17;15.50;99.90
26336;DHT22;14047;50.936;4.654;2023-08-06T09:56:45;15.40;99.90
26336;DHT22;14047;50.936;4.654;2023-08-06T09:59:12;15.50;99.90
26336;DHT22;14047;50.936;4.654;2023-08-06T10:01:38;15.40;99.90
26336;DHT22;14047;50.936;4.654;2023-08-06T10:04:06;15.30;99.90
26336;DHT22;14047;50.936;4.654;2023-08-06T10:06:37;15.10;99.90
26336;DHT22;14047;50.936;4.654;2023-08-06T10:09:04;15.00;99.90
26336;DHT22;14047;50.936;4.654;2023-08-06T10:11:30;15.00;99.90
26336;DHT22;14047;50.936;4.654;2023-08-06T10:14:12;14.80;99.90
26336;DHT22;14047;50.936;4.654;2023-08-06T10:16:40;14.80;99.90
26336;DHT22;14047;50.936;4.654;2023-08-06T10:19:09;14.80;99.90
26336;DHT22;14047;50.936;4.654;2023-08-06T10:21:38;14.80;99.90
26336;DHT22;14047;50.936;4.654;2023-08-06T10:24:07;14.80;99.90
26336;DHT22;14047;50.936;4.654;2023-08-06T10:26:36;14.80;99.90
26336;DHT22;14047;50.936;4.654;2023-08-06T10:29:37;14.70;99.90
26336;DHT22;14047;50.936;4.654;2023-08-06T10:32:03;14.80;99.90
26336;DHT22;14047;50.936;4.654;2023-08-06T10:34:59;14.90;99.90
26336;DHT22;14047;50.936;4.654;2023-08-06T10:37:36;15.00;99.90
26336;DHT22;14047;50.936;4.654;2023-08-06T10:40:03;15.00;99.90
26336;DHT22;14047;50.936;4.654;2023-08-06T10:42:30;15.00;99.90
26336;DHT22;14047;50.936;4.654;2023-08-06T10:45:22;14.90;99.90
26336;DHT22;14047;50.936;4.654;2023-08-06T10:47:54;15.00;99.90
26336;DHT22;14047;50.936;4.654;2023-08-06T10:50:24;14.90;99.90
26336;DHT22;14047;50.936;4.654;2023-08-06T10:52:50;14.90;99.90
26336;DHT22;14047;50.936;4.654;2023-08-06T10:57:50;15.10;99.90
26336;DHT22;14047;50.936;4.654;2023-08-06T11:00:16;15.10;99.90
26336;DHT22;14047;50.936;4.654;2023-08-06T11:02:42;15.10;99.90
26336;DHT22;14047;50.936;4.654;2023-08-06T11:05:10;15.20;99.90
26336;DHT22;14047;50.936;4.654;2023-08-06T11:07:37;15.20;99.90
26336;DHT22;14047;50.936;4.654;2023-08-06T11:10:03;15.30;99.90
26336;DHT22;14047;50.936;4.654;2023-08-06T11:12:31;15.30;99.90
26336;DHT22;14047;50.936;4.654;2023-08-06T11:14:57;15.20;99.90
26336;DHT22;14047;50.936;4.654;2023-08-06T11:17:23;15.30;99.90
26336;DHT22;14047;50.936;4.654;2023-08-06T11:19:52;15.10;99.90
26336;DHT22;14047;50.936;4.654;2023-08-06T11:22:21;15.10;99.90
26336;DHT22;14047;50.936;4.654;2023-08-06T11:24:48;15.00;99.90
26336;DHT22;14047;50.936;4.654;2023-08-06T11:27:15;15.00;99.90
26336;DHT22;14047;50.936;4.654;2023-08-06T11:29:42;15.00;99.90
26336;DHT22;14047;50.936;4.654;2023-08-06T11:32:09;14.90;99.90
26336;DHT22;14047;50.936;4.654;2023-08-06T11:34:36;14.90;99.90
26336;DHT22;14047;50.936;4.654;2023-08-06T11:37:05;14.90;99.90
26336;DHT22;14047;50.936;4.654;2023-08-06T11:39:36;14.80;99.90
26336;DHT22;14047;50.936;4.654;2023-08-06T11:42:08;14.90;99.90
26336;DHT22;14047;50.936;4.654;2023-08-06T11:44:37;14.90;99.90
26336;DHT22;14047;50.936;4.654;2023-08-06T11:47:04;14.80;99.90
26336;DHT22;14047;50.936;4.654;2023-08-06T11:49:41;14.80;99.90
26336;DHT22;14047;50.936;4.654;2023-08-06T11:52:13;14.70;99.90
26336;DHT22;14047;50.936;4.654;2023-08-06T11:54:39;14.70;99.90
26336;DHT22;14047;50.936;4.654;2023-08-06T11:57:08;14.70;99.90
26336;DHT22;14047;50.936;4.654;2023-08-06T11:59:34;14.70;99.90
26336;DHT22;14047;50.936;4.654;2023-08-06T12:02:08;14.60;99.90
26336;DHT22;14047;50.936;4.654;2023-08-06T12:07:32;14.70;99.90
26336;DHT22;14047;50.936;4.654;2023-08-06T12:09:59;14.60;99.90
26336;DHT22;14047;50.936;4.654;2023-08-06T12:12:25;14.80;99.90
26336;DHT22;14047;50.936;4.654;2023-08-06T12:14:51;14.70;99.90
26336;DHT22;14047;50.936;4.654;2023-08-06T12:17:17;14.80;99.90
26336;DHT22;14047;50.936;4.654;2023-08-06T12:19:44;15.00;99.90
26336;DHT22;14047;50.936;4.654;2023-08-06T12:22:12;15.10;99.90
26336;DHT22;14047;50.936;4.654;2023-08-06T12:24:43;15.10;99.90
26336;DHT22;14047;50.936;4.654;2023-08-06T12:27:09;15.10;99.90
26336;DHT22;14047;50.936;4.654;2023-08-06T12:29:36;15.00;99.90
26336;DHT22;14047;50.936;4.654;2023-08-06T12:32:03;15.00;99.90
26336;DHT22;14047;50.936;4.654;2023-08-06T12:34:29;14.90;99.90
26336;DHT22;14047;50.936;4.654;2023-08-06T12:36:58;14.90;99.90
26336;DHT22;14047;50.936;4.654;2023-08-06T12:39:24;14.90;99.90
26336;DHT22;14047;50.936;4.654;2023-08-06T12:41:50;15.00;99.90
26336;DHT22;14047;50.936;4.654;2023-08-06T12:44:16;15.00;99.90
26336;DHT22;14047;50.936;4.654;2023-08-06T12:46:42;15.00;99.90
26336;DHT22;14047;50.936;4.654;2023-08-06T12:49:11;15.00;99.90
26336;DHT22;14047;50.936;4.654;2023-08-06T12:51:36;14.90;99.90
26336;DHT22;14047;50.936;4.654;2023-08-06T12:54:02;15.00;99.90
26336;DHT22;14047;50.936;4.654;2023-08-06T12:56:28;15.00;99.90
26336;DHT22;14047;50.936;4.654;2023-08-06T12:58:54;15.00;99.90
26336;DHT22;14047;50.936;4.654;2023-08-06T13:01:20;15.00;99.90
26336;DHT22;14047;50.936;4.654;2023-08-06T13:03:46;14.90;99.90
26336;DHT22;14047;50.936;4.654;2023-08-06T13:06:12;14.90;99.90
26336;DHT22;14047;50.936;4.654;2023-08-06T13:08:38;14.70;99.90
26336;DHT22;14047;50.936;4.654;2023-08-06T13:11:05;14.70;99.90
26336;DHT22;14047;50.936;4.654;2023-08-06T13:13:30;14.80;99.90
26336;DHT22;14047;50.936;4.654;2023-08-06T13:15:56;14.70;99.90
26336;DHT22;14047;50.936;4.654;2023-08-06T13:18:22;14.70;99.90
26336;DHT22;14047;50.936;4.654;2023-08-06T13:20:49;14.60;99.90
26336;DHT22;14047;50.936;4.654;2023-08-06T13:23:18;14.70;99.90
26336;DHT22;14047;50.936;4.654;2023-08-06T13:25:44;14.70;99.90
26336;DHT22;14047;50.936;4.654;2023-08-06T13:28:10;14.80;99.90
26336;DHT22;14047;50.936;4.654;2023-08-06T13:30:36;14.80;99.90
26336;DHT22;14047;50.936;4.654;2023-08-06T13:33:11;14.80;99.90
26336;DHT22;14047;50.936;4.654;2023-08-06T13:35:37;14.90;99.90
26336;DHT22;14047;50.936;4.654;2023-08-06T13:38:03;14.90;99.90
26336;DHT22;14047;50.936;4.654;2023-08-06T13:40:32;15.00;99.90
26336;DHT22;14047;50.936;4.654;2023-08-06T13:42:58;14.80;99.90
26336;DHT22;14047;50.936;4.654;2023-08-06T13:45:24;14.80;99.90
26336;DHT22;14047;50.936;4.654;2023-08-06T13:47:50;14.80;99.90
26336;DHT22;14047;50.936;4.654;2023-08-06T13:50:16;14.70;99.90
26336;DHT22;14047;50.936;4.654;2023-08-06T13:52:42;14.60;99.90
26336;DHT22;14047;50.936;4.654;2023-08-06T13:55:08;14.50;99.90
26336;DHT22;14047;50.936;4.654;2023-08-06T13:57:34;14.60;99.90
26336;DHT22;14047;50.936;4.654;2023-08-06T14:00:01;14.50;99.90
26336;DHT22;14047;50.936;4.654;2023-08-06T14:02:38;14.40;99.90
26336;DHT22;14047;50.936;4.654;2023-08-06T14:05:04;14.20;99.90
26336;DHT22;14047;50.936;4.654;2023-08-06T14:07:30;14.20;99.90
26336;DHT22;14047;50.936;4.654;2023-08-06T14:09:56;14.20;99.90
26336;DHT22;14047;50.936;4.654;2023-08-06T14:12:24;14.30;99.90
26336;DHT22;14047;50.936;4.654;2023-08-06T14:14:50;14.30;99.90
26336;DHT22;14047;50.936;4.654;2023-08-06T14:17:16;14.40;99.90
26336;DHT22;14047;50.936;4.654;2023-08-06T14:19:42;14.40;99.90
26336;DHT22;14047;50.936;4.654;2023-08-06T14:22:08;14.30;99.90
26336;DHT22;14047;50.936;4.654;2023-08-06T14:24:34;14.40;99.90
26336;DHT22;14047;50.936;4.654;2023-08-06T14:27:00;14.40;99.90
26336;DHT22;14047;50.936;4.654;2023-08-06T14:29:26;14.40;99.90
26336;DHT22;14047;50.936;4.654;2023-08-06T14:31:52;14.40;99.90
26336;DHT22;14047;50.936;4.654;2023-08-06T14:34:18;14.40;99.90
26336;DHT22;14047;50.936;4.654;2023-08-06T14:36:44;14.40;99.90
26336;DHT22;14047;50.936;4.654;2023-08-06T14:39:10;14.50;99.90
26336;DHT22;14047;50.936;4.654;2023-08-06T14:41:36;14.50;99.90
26336;DHT22;14047;50.936;4.654;2023-08-06T14:44:01;14.50;99.90
26336;DHT22;14047;50.936;4.654;2023-08-06T14:46:27;14.70;99.90
26336;DHT22;14047;50.936;4.654;2023-08-06T14:48:53;14.70;99.90
26336;DHT22;14047;50.936;4.654;2023-08-06T14:51:19;14.80;99.90
26336;DHT22;14047;50.936;4.654;2023-08-06T14:53:46;14.90;99.90
26336;DHT22;14047;50.936;4.654;2023-08-06T14:56:12;15.00;99.90
26336;DHT22;14047;50.936;4.654;2023-08-06T14:58:38;15.10;99.90
26336;DHT22;14047;50.936;4.654;2023-08-06T15:01:04;15.10;99.90
26336;DHT22;14047;50.936;4.654;2023-08-06T15:03:30;15.20;99.90
26336;DHT22;14047;50.936;4.654;2023-08-06T15:05:57;15.20;99.90
26336;DHT22;14047;50.936;4.654;2023-08-06T15:08:23;15.20;99.90
26336;DHT22;14047;50.936;4.654;2023-08-06T15:10:52;15.00;99.90
26336;DHT22;14047;50.936;4.654;2023-08-06T15:13:19;14.80;99.90
26336;DHT22;14047;50.936;4.654;2023-08-06T15:15:49;14.80;99.90
26336;DHT22;14047;50.936;4.654;2023-08-06T15:18:15;14.60;99.90
26336;DHT22;14047;50.936;4.654;2023-08-06T15:20:41;14.60;99.90
26336;DHT22;14047;50.936;4.654;2023-08-06T15:23:07;14.60;99.90
26336;DHT22;14047;50.936;4.654;2023-08-06T15:25:33;14.60;99.90
26336;DHT22;14047;50.936;4.654;2023-08-06T15:27:59;14.60;99.90
26336;DHT22;14047;50.936;4.654;2023-08-06T15:30:25;14.60;99.90
26336;DHT22;14047;50.936;4.654;2023-08-06T15:32:51;14.70;99.90
26336;DHT22;14047;50.936;4.654;2023-08-06T15:35:17;14.80;99.90
26336;DHT22;14047;50.936;4.654;2023-08-06T15:37:43;14.80;99.90
26336;DHT22;14047;50.936;4.654;2023-08-06T15:40:09;14.90;99.90
26336;DHT22;14047;50.936;4.654;2023-08-06T15:42:35;14.90;99.90
26336;DHT22;14047;50.936;4.654;2023-08-06T15:45:01;15.00;99.90